Time;durP1;ratioP1;P1;durP2;ratioP2;P2;SDS_P1;SDS_P2;PMS_P1;PMS_P2;Temp;Humidity;BMP_temperature;BMP_pressure;BME280_temperature;BME280_humidity;BME280_pressure;Samples;Min_cycle;Max_cycle;Signal;HPM_P1;HPM_P2
2023/11/24 00:02:13;;;;;;;6.9;4.2;;;;;;;;;;;;;
2023/11/24 00:04:43;;;;;;;7.6;4.5;;;;;;;;;;;;;
2023/11/24 00:07:08;;;;;;;8.1;4.7;;;;;;;;;;;;;
2023/11/24 00:09:36;;;;;;;8;5.1;;;;;;;;;;;;;
2023/11/24 00:12:02;;;;;;;10.1;6.4;;;;;;;;;;;;;
2023/11/24 00:14:32;;;;;;;11.7;7.2;;;;;;;;;;;;;
2023/11/24 00:17:04;;;;;;;11.3;6.5;;;;;;;;;;;;;
2023/11/24 00:19:33;;;;;;;12.2;7.7;;;;;;;;;;;;;
2023/11/24 00:22:08;;;;;;;9.4;5.7;;;;;;;;;;;;;
2023/11/24 00:24:37;;;;;;;8.1;5.5;;;;;;;;;;;;;
2023/11/24 00:27:05;;;;;;;7.4;4.8;;;;;;;;;;;;;
2023/11/24 00:29:28;;;;;;;6.7;4.8;;;;;;;;;;;;;
2023/11/24 00:31:56;;;;;;;7.8;5;;;;;;;;;;;;;
2023/11/24 00:34:23;;;;;;;7.5;5;;;;;;;;;;;;;
2023/11/24 00:36:46;;;;;;;6.9;4.6;;;;;;;;;;;;;
2023/11/24 00:39:14;;;;;;;6.2;3.9;;;;;;;;;;;;;
2023/11/24 00:41:39;;;;;;;6.1;4.4;;;;;;;;;;;;;
2023/11/24 00:44:04;;;;;;;6.9;4.6;;;;;;;;;;;;;
2023/11/24 00:46:29;;;;;;;5.7;4.1;;;;;;;;;;;;;
2023/11/24 00:48:56;;;;;;;5.4;3.9;;;;;;;;;;;;;
2023/11/24 00:51:21;;;;;;;6.7;3.9;;;;;;;;;;;;;
2023/11/24 00:53:51;;;;;;;6.5;3.9;;;;;;;;;;;;;
2023/11/24 00:56:20;;;;;;;5.7;3.7;;;;;;;;;;;;;
2023/11/24 00:58:46;;;;;;;5.3;3.3;;;;;;;;;;;;;
2023/11/24 01:01:13;;;;;;;5.3;3.6;;;;;;;;;;;;;
2023/11/24 01:03:38;;;;;;;7.1;4.2;;;;;;;;;;;;;
2023/11/24 01:06:04;;;;;;;6.8;4;;;;;;;;;;;;;
2023/11/24 01:08:30;;;;;;;5.5;3.5;;;;;;;;;;;;;
2023/11/24 01:10:57;;;;;;;7;4.4;;;;;;;;;;;;;
2023/11/24 01:13:21;;;;;;;7.1;4.8;;;;;;;;;;;;;
2023/11/24 01:15:46;;;;;;;8.5;5.5;;;;;;;;;;;;;
2023/11/24 01:18:12;;;;;;;8.2;5;;;;;;;;;;;;;
2023/11/24 01:20:38;;;;;;;6.7;4.3;;;;;;;;;;;;;
2023/11/24 01:23:04;;;;;;;6.7;3.8;;;;;;;;;;;;;
2023/11/24 01:25:29;;;;;;;5.3;3.6;;;;;;;;;;;;;
2023/11/24 01:27:55;;;;;;;5.8;4.3;;;;;;;;;;;;;
2023/11/24 01:30:19;;;;;;;7.1;3.9;;;;;;;;;;;;;
2023/11/24 01:32:45;;;;;;;6.7;4.2;;;;;;;;;;;;;
2023/11/24 01:35:12;;;;;;;7.4;4.5;;;;;;;;;;;;;
2023/11/24 01:37:38;;;;;;;6.7;4;;;;;;;;;;;;;
2023/11/24 01:40:06;;;;;;;6.1;4;;;;;;;;;;;;;
2023/11/24 01:42:31;;;;;;;6.5;4.5;;;;;;;;;;;;;
2023/11/24 01:44:56;;;;;;;6.5;3.9;;;;;;;;;;;;;
2023/11/24 01:47:21;;;;;;;6.1;4.2;;;;;;;;;;;;;
2023/11/24 01:49:47;;;;;;;5.8;4;;;;;;;;;;;;;
2023/11/24 01:52:12;;;;;;;5.7;3.8;;;;;;;;;;;;;
2023/11/24 01:54:38;;;;;;;6.3;4;;;;;;;;;;;;;
2023/11/24 01:57:03;;;;;;;5.9;4.2;;;;;;;;;;;;;
2023/11/24 01:59:31;;;;;;;6.7;4.4;;;;;;;;;;;;;
2023/11/24 02:01:56;;;;;;;7.1;4.7;;;;;;;;;;;;;
2023/11/24 02:04:23;;;;;;;6.8;4.4;;;;;;;;;;;;;
2023/11/24 02:06:48;;;;;;;5.9;3.9;;;;;;;;;;;;;
2023/11/24 02:09:15;;;;;;;7;4.4;;;;;;;;;;;;;
2023/11/24 02:11:40;;;;;;;8.6;5;;;;;;;;;;;;;
2023/11/24 02:14:05;;;;;;;8.2;5.1;;;;;;;;;;;;;
2023/11/24 02:16:30;;;;;;;10.5;5.5;;;;;;;;;;;;;
2023/11/24 02:18:57;;;;;;;7.4;4.1;;;;;;;;;;;;;
2023/11/24 02:21:22;;;;;;;7.5;4.2;;;;;;;;;;;;;
2023/11/24 02:23:47;;;;;;;9.1;5;;;;;;;;;;;;;
2023/11/24 02:26:14;;;;;;;7.1;4.4;;;;;;;;;;;;;
2023/11/24 02:28:42;;;;;;;4.3;3.4;;;;;;;;;;;;;
2023/11/24 02:31:07;;;;;;;3.4;2.6;;;;;;;;;;;;;
2023/11/24 02:33:33;;;;;;;4.5;3.1;;;;;;;;;;;;;
2023/11/24 02:36:00;;;;;;;7.3;4.1;;;;;;;;;;;;;
2023/11/24 02:38:23;;;;;;;6;3.6;;;;;;;;;;;;;
2023/11/24 02:40:50;;;;;;;5.6;3.6;;;;;;;;;;;;;
2023/11/24 02:43:15;;;;;;;6.6;4.2;;;;;;;;;;;;;
2023/11/24 02:45:40;;;;;;;6.4;4.6;;;;;;;;;;;;;
2023/11/24 02:48:05;;;;;;;6.9;5.7;;;;;;;;;;;;;
2023/11/24 02:50:33;;;;;;;7.9;5.2;;;;;;;;;;;;;
2023/11/24 02:52:58;;;;;;;8;4.8;;;;;;;;;;;;;
2023/11/24 02:55:26;;;;;;;7.8;5.1;;;;;;;;;;;;;
2023/11/24 02:57:51;;;;;;;9.6;6.2;;;;;;;;;;;;;
2023/11/24 03:00:20;;;;;;;8.4;4.3;;;;;;;;;;;;;
2023/11/24 03:02:44;;;;;;;7.3;4.7;;;;;;;;;;;;;
2023/11/24 03:05:16;;;;;;;8.5;5;;;;;;;;;;;;;
2023/11/24 03:07:42;;;;;;;7.7;4.9;;;;;;;;;;;;;
2023/11/24 03:10:08;;;;;;;7.8;5;;;;;;;;;;;;;
2023/11/24 03:12:34;;;;;;;7.8;5.5;;;;;;;;;;;;;
2023/11/24 03:15:00;;;;;;;7.3;4.5;;;;;;;;;;;;;
2023/11/24 03:17:26;;;;;;;6.3;3.9;;;;;;;;;;;;;
2023/11/24 03:19:51;;;;;;;8.2;4.6;;;;;;;;;;;;;
2023/11/24 03:22:17;;;;;;;5.6;3.9;;;;;;;;;;;;;
2023/11/24 03:24:42;;;;;;;6.3;3.8;;;;;;;;;;;;;
2023/11/24 03:27:08;;;;;;;6;3.7;;;;;;;;;;;;;
2023/11/24 03:29:36;;;;;;;6.4;3.4;;;;;;;;;;;;;
2023/11/24 03:32:02;;;;;;;4.9;3.5;;;;;;;;;;;;;
2023/11/24 03:34:27;;;;;;;6.1;3.4;;;;;;;;;;;;;
2023/11/24 03:36:53;;;;;;;9.3;5.4;;;;;;;;;;;;;
2023/11/24 03:39:21;;;;;;;10.2;6.3;;;;;;;;;;;;;
2023/11/24 03:41:43;;;;;;;8.5;5.3;;;;;;;;;;;;;
2023/11/24 03:44:09;;;;;;;4;3.3;;;;;;;;;;;;;
2023/11/24 03:46:34;;;;;;;6.8;3.9;;;;;;;;;;;;;
2023/11/24 03:48:59;;;;;;;6.2;4;;;;;;;;;;;;;
2023/11/24 03:51:24;;;;;;;5.4;3.3;;;;;;;;;;;;;
2023/11/24 03:53:50;;;;;;;4.2;2.8;;;;;;;;;;;;;
2023/11/24 03:56:16;;;;;;;5.1;2.8;;;;;;;;;;;;;
2023/11/24 03:58:44;;;;;;;4.6;3;;;;;;;;;;;;;
2023/11/24 04:02:31;;;;;;;4.7;3.5;;;;;;;;;;;;;
2023/11/24 04:07:20;;;;;;;4.5;3.1;;;;;;;;;;;;;
2023/11/24 04:09:45;;;;;;;4;3.1;;;;;;;;;;;;;
2023/11/24 04:12:11;;;;;;;5;2.9;;;;;;;;;;;;;
2023/11/24 04:14:37;;;;;;;3.8;2.7;;;;;;;;;;;;;
2023/11/24 04:17:07;;;;;;;3.6;2.6;;;;;;;;;;;;;
2023/11/24 04:19:29;;;;;;;3.9;3;;;;;;;;;;;;;
2023/11/24 04:21:55;;;;;;;3.6;3;;;;;;;;;;;;;
2023/11/24 04:24:23;;;;;;;3.8;2.8;;;;;;;;;;;;;
2023/11/24 04:26:46;;;;;;;5.2;3.1;;;;;;;;;;;;;
2023/11/24 04:29:11;;;;;;;5.6;3;;;;;;;;;;;;;
2023/11/24 04:31:36;;;;;;;3.4;3.1;;;;;;;;;;;;;
2023/11/24 04:34:03;;;;;;;4.2;3.1;;;;;;;;;;;;;
2023/11/24 04:36:28;;;;;;;4.8;3.8;;;;;;;;;;;;;
2023/11/24 04:38:54;;;;;;;3.8;3.4;;;;;;;;;;;;;
2023/11/24 04:41:19;;;;;;;4.4;3.7;;;;;;;;;;;;;
2023/11/24 04:43:44;;;;;;;4.6;3.3;;;;;;;;;;;;;
2023/11/24 04:46:09;;;;;;;5.2;3.3;;;;;;;;;;;;;
2023/11/24 04:48:37;;;;;;;5.5;3.5;;;;;;;;;;;;;
2023/11/24 04:51:00;;;;;;;4.5;2.9;;;;;;;;;;;;;
2023/11/24 04:53:26;;;;;;;5;3.4;;;;;;;;;;;;;
2023/11/24 04:55:51;;;;;;;3.9;3;;;;;;;;;;;;;
2023/11/24 04:58:18;;;;;;;5.6;3.1;;;;;;;;;;;;;
2023/11/24 05:00:43;;;;;;;4.2;3.4;;;;;;;;;;;;;
2023/11/24 05:03:11;;;;;;;6;3.2;;;;;;;;;;;;;
2023/11/24 05:05:36;;;;;;;4.3;3.6;;;;;;;;;;;;;
2023/11/24 05:08:02;;;;;;;5.6;4.6;;;;;;;;;;;;;
2023/11/24 05:10:26;;;;;;;5.6;4.3;;;;;;;;;;;;;
2023/11/24 05:12:54;;;;;;;9;6.9;;;;;;;;;;;;;
2023/11/24 05:15:19;;;;;;;5.9;4.8;;;;;;;;;;;;;
2023/11/24 05:17:45;;;;;;;6.7;5.9;;;;;;;;;;;;;
2023/11/24 05:20:12;;;;;;;6.4;5.2;;;;;;;;;;;;;
2023/11/24 05:22:39;;;;;;;7.9;4.9;;;;;;;;;;;;;
2023/11/24 05:25:05;;;;;;;5.8;4.5;;;;;;;;;;;;;
2023/11/24 05:27:33;;;;;;;5.4;4.2;;;;;;;;;;;;;
2023/11/24 05:29:58;;;;;;;9;6.2;;;;;;;;;;;;;
2023/11/24 05:32:24;;;;;;;10;7.6;;;;;;;;;;;;;
2023/11/24 05:34:50;;;;;;;8.5;6.3;;;;;;;;;;;;;
2023/11/24 05:37:16;;;;;;;5.5;4.7;;;;;;;;;;;;;
2023/11/24 05:39:41;;;;;;;6.3;4.9;;;;;;;;;;;;;
2023/11/24 05:42:08;;;;;;;8;5.2;;;;;;;;;;;;;
2023/11/24 05:44:33;;;;;;;5.6;4.3;;;;;;;;;;;;;
2023/11/24 05:46:59;;;;;;;12.4;8.6;;;;;;;;;;;;;
2023/11/24 05:49:23;;;;;;;11.3;6.7;;;;;;;;;;;;;
2023/11/24 05:51:51;;;;;;;11.1;7.6;;;;;;;;;;;;;
2023/11/24 05:54:16;;;;;;;8.7;6.1;;;;;;;;;;;;;
2023/11/24 05:56:44;;;;;;;5.4;4;;;;;;;;;;;;;
2023/11/24 05:59:07;;;;;;;5;3.6;;;;;;;;;;;;;
2023/11/24 06:01:35;;;;;;;7.2;4;;;;;;;;;;;;;
2023/11/24 06:03:57;;;;;;;5.6;4.1;;;;;;;;;;;;;
2023/11/24 06:06:25;;;;;;;4.9;3.7;;;;;;;;;;;;;
2023/11/24 06:08:50;;;;;;;6.8;4.9;;;;;;;;;;;;;
2023/11/24 06:11:17;;;;;;;5.6;4.1;;;;;;;;;;;;;
2023/11/24 06:13:41;;;;;;;5.5;3.4;;;;;;;;;;;;;
2023/11/24 06:16:07;;;;;;;9;6.4;;;;;;;;;;;;;
2023/11/24 06:18:32;;;;;;;9.6;6.8;;;;;;;;;;;;;
2023/11/24 06:20:58;;;;;;;9.2;6.3;;;;;;;;;;;;;
2023/11/24 06:23:23;;;;;;;8.2;5.3;;;;;;;;;;;;;
2023/11/24 06:25:48;;;;;;;6.7;5.3;;;;;;;;;;;;;
2023/11/24 06:28:13;;;;;;;9.1;5;;;;;;;;;;;;;
2023/11/24 06:30:41;;;;;;;6;4.6;;;;;;;;;;;;;
2023/11/24 06:33:06;;;;;;;7.3;5.1;;;;;;;;;;;;;
2023/11/24 06:35:32;;;;;;;5.8;4;;;;;;;;;;;;;
2023/11/24 06:37:58;;;;;;;5.5;3.9;;;;;;;;;;;;;
2023/11/24 06:40:27;;;;;;;5.2;3.8;;;;;;;;;;;;;
2023/11/24 06:42:56;;;;;;;11;6.9;;;;;;;;;;;;;
2023/11/24 06:45:21;;;;;;;5.2;3.8;;;;;;;;;;;;;
2023/11/24 06:47:48;;;;;;;6.5;4.3;;;;;;;;;;;;;
2023/11/24 06:50:12;;;;;;;9.8;5.7;;;;;;;;;;;;;
2023/11/24 06:52:43;;;;;;;6.6;4.5;;;;;;;;;;;;;
2023/11/24 06:55:12;;;;;;;6.8;4;;;;;;;;;;;;;
2023/11/24 06:57:37;;;;;;;5.2;3.6;;;;;;;;;;;;;
2023/11/24 07:00:05;;;;;;;7.1;4.1;;;;;;;;;;;;;
2023/11/24 07:02:28;;;;;;;8.9;5.9;;;;;;;;;;;;;
2023/11/24 07:04:55;;;;;;;9.1;4.7;;;;;;;;;;;;;
2023/11/24 07:07:21;;;;;;;10.8;7;;;;;;;;;;;;;
2023/11/24 07:09:46;;;;;;;9.5;4.9;;;;;;;;;;;;;
2023/11/24 07:12:17;;;;;;;10;5;;;;;;;;;;;;;
2023/11/24 07:14:37;;;;;;;5.7;3.6;;;;;;;;;;;;;
2023/11/24 07:17:03;;;;;;;15.7;10.2;;;;;;;;;;;;;
2023/11/24 07:19:28;;;;;;;8;5.3;;;;;;;;;;;;;
2023/11/24 07:21:53;;;;;;;11.2;7.3;;;;;;;;;;;;;
2023/11/24 07:24:19;;;;;;;8.6;6.2;;;;;;;;;;;;;
2023/11/24 07:26:45;;;;;;;6.7;5.2;;;;;;;;;;;;;
2023/11/24 07:29:10;;;;;;;4;3;;;;;;;;;;;;;
2023/11/24 07:31:38;;;;;;;5.4;3.9;;;;;;;;;;;;;
2023/11/24 07:34:04;;;;;;;4.6;3.4;;;;;;;;;;;;;
2023/11/24 07:36:31;;;;;;;38.3;21.8;;;;;;;;;;;;;
2023/11/24 07:38:55;;;;;;;24.2;16.1;;;;;;;;;;;;;
2023/11/24 07:41:22;;;;;;;10.5;6.8;;;;;;;;;;;;;
2023/11/24 07:43:47;;;;;;;8.6;5.8;;;;;;;;;;;;;
2023/11/24 07:46:12;;;;;;;12.8;8.7;;;;;;;;;;;;;
2023/11/24 07:48:37;;;;;;;8.9;6.3;;;;;;;;;;;;;
2023/11/24 07:51:05;;;;;;;8.5;6.3;;;;;;;;;;;;;
2023/11/24 07:53:29;;;;;;;22.3;15.1;;;;;;;;;;;;;
2023/11/24 07:55:55;;;;;;;10.9;7.9;;;;;;;;;;;;;
2023/11/24 07:58:22;;;;;;;12.6;8;;;;;;;;;;;;;
2023/11/24 08:00:48;;;;;;;9.1;6.2;;;;;;;;;;;;;
2023/11/24 08:03:13;;;;;;;15.2;8.4;;;;;;;;;;;;;
2023/11/24 08:05:38;;;;;;;8.1;5.3;;;;;;;;;;;;;
2023/11/24 08:08:05;;;;;;;6.8;5.7;;;;;;;;;;;;;
2023/11/24 08:10:31;;;;;;;7.3;5.4;;;;;;;;;;;;;
2023/11/24 08:12:59;;;;;;;8.6;6;;;;;;;;;;;;;
2023/11/24 08:15:22;;;;;;;5.4;4.1;;;;;;;;;;;;;
2023/11/24 08:17:49;;;;;;;11.6;7.7;;;;;;;;;;;;;
2023/11/24 08:20:15;;;;;;;11.1;7.8;;;;;;;;;;;;;
2023/11/24 08:22:41;;;;;;;34.5;21.6;;;;;;;;;;;;;
2023/11/24 08:25:08;;;;;;;28.5;17.5;;;;;;;;;;;;;
2023/11/24 08:27:37;;;;;;;10.2;8.1;;;;;;;;;;;;;
2023/11/24 08:30:10;;;;;;;6.1;4.8;;;;;;;;;;;;;
2023/11/24 08:32:31;;;;;;;4.6;3.5;;;;;;;;;;;;;
2023/11/24 08:34:57;;;;;;;4.3;3.3;;;;;;;;;;;;;
2023/11/24 08:37:23;;;;;;;7.1;3.6;;;;;;;;;;;;;
2023/11/24 08:39:54;;;;;;;9.5;5.1;;;;;;;;;;;;;
2023/11/24 08:42:25;;;;;;;8.3;5.1;;;;;;;;;;;;;
2023/11/24 08:44:52;;;;;;;7.7;5.1;;;;;;;;;;;;;
2023/11/24 08:47:17;;;;;;;7.7;5.1;;;;;;;;;;;;;
2023/11/24 08:49:42;;;;;;;3.4;2.3;;;;;;;;;;;;;
2023/11/24 08:52:09;;;;;;;2.7;1.7;;;;;;;;;;;;;
2023/11/24 08:54:36;;;;;;;1.3;1.1;;;;;;;;;;;;;
2023/11/24 08:57:01;;;;;;;1.1;0.8;;;;;;;;;;;;;
2023/11/24 08:59:29;;;;;;;1;0.6;;;;;;;;;;;;;
2023/11/24 09:01:55;;;;;;;1.1;0.5;;;;;;;;;;;;;
2023/11/24 09:04:22;;;;;;;1.3;0.5;;;;;;;;;;;;;
2023/11/24 09:06:47;;;;;;;0.4;0.3;;;;;;;;;;;;;
2023/11/24 09:09:12;;;;;;;0.1;0.1;;;;;;;;;;;;;
2023/11/24 09:11:37;;;;;;;0.2;0.2;;;;;;;;;;;;;
2023/11/24 09:14:05;;;;;;;1.1;0.4;;;;;;;;;;;;;
2023/11/24 09:16:30;;;;;;;0.2;0.2;;;;;;;;;;;;;
2023/11/24 09:18:58;;;;;;;0.4;0.4;;;;;;;;;;;;;
2023/11/24 09:21:22;;;;;;;0.6;0.3;;;;;;;;;;;;;
2023/11/24 09:23:47;;;;;;;0.2;0.2;;;;;;;;;;;;;
2023/11/24 09:26:13;;;;;;;1;0.2;;;;;;;;;;;;;
2023/11/24 09:28:39;;;;;;;0.4;0.3;;;;;;;;;;;;;
2023/11/24 09:31:08;;;;;;;0.2;0.2;;;;;;;;;;;;;
2023/11/24 09:33:29;;;;;;;0.2;0.2;;;;;;;;;;;;;
2023/11/24 09:35:55;;;;;;;0.2;0.2;;;;;;;;;;;;;
2023/11/24 09:38:19;;;;;;;0.2;0.2;;;;;;;;;;;;;
2023/11/24 09:40:47;;;;;;;0.4;0.4;;;;;;;;;;;;;
2023/11/24 09:43:12;;;;;;;1;0.2;;;;;;;;;;;;;
2023/11/24 09:45:39;;;;;;;0.2;0.1;;;;;;;;;;;;;
2023/11/24 09:48:04;;;;;;;0.2;0.2;;;;;;;;;;;;;
2023/11/24 09:50:30;;;;;;;1.4;0.2;;;;;;;;;;;;;
2023/11/24 09:52:56;;;;;;;0.1;0.1;;;;;;;;;;;;;
2023/11/24 09:55:21;;;;;;;0.1;0.1;;;;;;;;;;;;;
2023/11/24 09:57:49;;;;;;;0.2;0.2;;;;;;;;;;;;;
2023/11/24 10:00:15;;;;;;;0.2;0.2;;;;;;;;;;;;;
2023/11/24 10:02:43;;;;;;;0.2;0.2;;;;;;;;;;;;;
2023/11/24 10:05:15;;;;;;;0.3;0.3;;;;;;;;;;;;;
2023/11/24 10:07:43;;;;;;;0.2;0.2;;;;;;;;;;;;;
2023/11/24 10:10:08;;;;;;;0.6;0.1;;;;;;;;;;;;;
2023/11/24 10:12:36;;;;;;;0.4;0.4;;;;;;;;;;;;;
2023/11/24 10:14:59;;;;;;;0.1;0.1;;;;;;;;;;;;;
2023/11/24 10:17:24;;;;;;;0.5;0.5;;;;;;;;;;;;;
2023/11/24 10:19:49;;;;;;;0.5;0.2;;;;;;;;;;;;;
2023/11/24 10:22:17;;;;;;;0.3;0.3;;;;;;;;;;;;;
2023/11/24 10:26:33;;;;;;;0.2;0.1;;;;;;;;;;;;;
2023/11/24 10:28:59;;;;;;;0.6;0.4;;;;;;;;;;;;;
2023/11/24 10:31:26;;;;;;;0.2;0.1;;;;;;;;;;;;;
2023/11/24 10:33:50;;;;;;;0.5;0.5;;;;;;;;;;;;;
2023/11/24 10:36:19;;;;;;;0.2;0.2;;;;;;;;;;;;;
2023/11/24 10:38:43;;;;;;;0.2;0.2;;;;;;;;;;;;;
2023/11/24 10:41:11;;;;;;;0.5;0.4;;;;;;;;;;;;;
2023/11/24 10:43:35;;;;;;;0.2;0.2;;;;;;;;;;;;;
2023/11/24 10:46:02;;;;;;;0.2;0.2;;;;;;;;;;;;;
2023/11/24 10:48:26;;;;;;;0.2;0.2;;;;;;;;;;;;;
2023/11/24 10:50:51;;;;;;;0.3;0.3;;;;;;;;;;;;;
2023/11/24 10:53:17;;;;;;;0.2;0.2;;;;;;;;;;;;;
2023/11/24 10:55:44;;;;;;;0.1;0.1;;;;;;;;;;;;;
2023/11/24 10:58:09;;;;;;;0.9;0.3;;;;;;;;;;;;;
2023/11/24 11:00:37;;;;;;;0.4;0.3;;;;;;;;;;;;;
2023/11/24 11:03:01;;;;;;;0.3;0.3;;;;;;;;;;;;;
2023/11/24 11:05:33;;;;;;;0.2;0.2;;;;;;;;;;;;;
2023/11/24 11:07:56;;;;;;;0.1;0.1;;;;;;;;;;;;;
2023/11/24 11:10:25;;;;;;;0.6;0.6;;;;;;;;;;;;;
2023/11/24 11:12:51;;;;;;;0.3;0.3;;;;;;;;;;;;;
2023/11/24 11:15:13;;;;;;;0.2;0.2;;;;;;;;;;;;;
2023/11/24 11:17:43;;;;;;;0.6;0.6;;;;;;;;;;;;;
2023/11/24 11:20:22;;;;;;;0.5;0.3;;;;;;;;;;;;;
2023/11/24 11:22:47;;;;;;;7.1;2.6;;;;;;;;;;;;;
2023/11/24 11:25:12;;;;;;;0.2;0.2;;;;;;;;;;;;;
2023/11/24 11:27:37;;;;;;;0.2;0.2;;;;;;;;;;;;;
2023/11/24 11:30:04;;;;;;;1.2;0.3;;;;;;;;;;;;;
2023/11/24 11:32:29;;;;;;;0.9;0.8;;;;;;;;;;;;;
2023/11/24 11:34:54;;;;;;;3.3;2.1;;;;;;;;;;;;;
2023/11/24 11:37:22;;;;;;;6.7;4.2;;;;;;;;;;;;;
2023/11/24 11:39:53;;;;;;;0.3;0.3;;;;;;;;;;;;;
2023/11/24 11:42:12;;;;;;;1.3;0.5;;;;;;;;;;;;;
2023/11/24 11:44:46;;;;;;;0.5;0.4;;;;;;;;;;;;;
2023/11/24 11:47:09;;;;;;;7.2;4.1;;;;;;;;;;;;;
2023/11/24 11:49:32;;;;;;;2.4;1.5;;;;;;;;;;;;;
2023/11/24 11:51:58;;;;;;;1.2;0.3;;;;;;;;;;;;;
2023/11/24 11:54:24;;;;;;;0.5;0.5;;;;;;;;;;;;;
2023/11/24 11:56:48;;;;;;;1.1;0.4;;;;;;;;;;;;;
2023/11/24 11:59:16;;;;;;;0.3;0.3;;;;;;;;;;;;;
2023/11/24 12:01:39;;;;;;;0.2;0.2;;;;;;;;;;;;;
2023/11/24 12:04:05;;;;;;;1.2;0.4;;;;;;;;;;;;;
2023/11/24 12:06:30;;;;;;;0.4;0.3;;;;;;;;;;;;;
2023/11/24 12:08:59;;;;;;;0.8;0.6;;;;;;;;;;;;;
2023/11/24 12:11:24;;;;;;;0.8;0.4;;;;;;;;;;;;;
2023/11/24 12:13:51;;;;;;;0.3;0.3;;;;;;;;;;;;;
2023/11/24 12:16:17;;;;;;;0.8;0.7;;;;;;;;;;;;;
2023/11/24 12:18:48;;;;;;;0.3;0.3;;;;;;;;;;;;;
2023/11/24 12:21:09;;;;;;;0.6;0.4;;;;;;;;;;;;;
2023/11/24 12:23:36;;;;;;;0.4;0.4;;;;;;;;;;;;;
2023/11/24 12:26:01;;;;;;;1;0.7;;;;;;;;;;;;;
2023/11/24 12:28:27;;;;;;;9.3;5.2;;;;;;;;;;;;;
2023/11/24 12:30:53;;;;;;;0.7;0.7;;;;;;;;;;;;;
2023/11/24 12:33:24;;;;;;;2;1;;;;;;;;;;;;;
2023/11/24 12:35:52;;;;;;;1.2;0.7;;;;;;;;;;;;;
2023/11/24 12:38:16;;;;;;;0.6;0.5;;;;;;;;;;;;;
2023/11/24 12:40:43;;;;;;;1.1;0.8;;;;;;;;;;;;;
2023/11/24 12:43:07;;;;;;;1.6;1.2;;;;;;;;;;;;;
2023/11/24 12:45:35;;;;;;;1.3;0.7;;;;;;;;;;;;;
2023/11/24 12:48:01;;;;;;;0.7;0.5;;;;;;;;;;;;;
2023/11/24 12:50:29;;;;;;;1;0.6;;;;;;;;;;;;;
2023/11/24 12:52:53;;;;;;;1.1;0.5;;;;;;;;;;;;;
2023/11/24 12:55:21;;;;;;;1;0.4;;;;;;;;;;;;;
2023/11/24 12:57:47;;;;;;;0.7;0.4;;;;;;;;;;;;;
2023/11/24 13:00:13;;;;;;;0.4;0.3;;;;;;;;;;;;;
2023/11/24 13:02:36;;;;;;;0.6;0.4;;;;;;;;;;;;;
2023/11/24 13:05:05;;;;;;;0.6;0.3;;;;;;;;;;;;;
2023/11/24 13:07:29;;;;;;;0.4;0.4;;;;;;;;;;;;;
2023/11/24 13:09:54;;;;;;;0.5;0.5;;;;;;;;;;;;;
2023/11/24 13:12:19;;;;;;;0.6;0.4;;;;;;;;;;;;;
2023/11/24 13:14:48;;;;;;;4.9;3.3;;;;;;;;;;;;;
2023/11/24 13:17:13;;;;;;;1.5;1.1;;;;;;;;;;;;;
2023/11/24 13:19:42;;;;;;;0.7;0.7;;;;;;;;;;;;;
2023/11/24 13:22:09;;;;;;;1.5;0.9;;;;;;;;;;;;;
2023/11/24 13:24:32;;;;;;;0.6;0.6;;;;;;;;;;;;;
2023/11/24 13:26:58;;;;;;;1.4;0.8;;;;;;;;;;;;;
2023/11/24 13:29:24;;;;;;;1.1;1;;;;;;;;;;;;;
2023/11/24 13:31:51;;;;;;;1.7;1.5;;;;;;;;;;;;;
2023/11/24 13:34:17;;;;;;;1.6;1.4;;;;;;;;;;;;;
2023/11/24 13:36:45;;;;;;;0.8;0.8;;;;;;;;;;;;;
2023/11/24 13:39:09;;;;;;;0.8;0.6;;;;;;;;;;;;;
2023/11/24 13:41:33;;;;;;;1.1;0.7;;;;;;;;;;;;;
2023/11/24 13:44:01;;;;;;;5.1;2;;;;;;;;;;;;;
2023/11/24 13:46:33;;;;;;;1.9;0.7;;;;;;;;;;;;;
2023/11/24 13:48:57;;;;;;;2.1;0.9;;;;;;;;;;;;;
2023/11/24 13:51:24;;;;;;;1.2;0.7;;;;;;;;;;;;;
2023/11/24 13:53:51;;;;;;;1.7;1.1;;;;;;;;;;;;;
2023/11/24 13:56:12;;;;;;;3.2;3;;;;;;;;;;;;;
2023/11/24 13:58:40;;;;;;;2.6;0.7;;;;;;;;;;;;;
2023/11/24 14:01:06;;;;;;;0.6;0.6;;;;;;;;;;;;;
2023/11/24 14:03:31;;;;;;;0.6;0.5;;;;;;;;;;;;;
2023/11/24 14:05:56;;;;;;;1;0.5;;;;;;;;;;;;;
2023/11/24 14:08:24;;;;;;;0.3;0.3;;;;;;;;;;;;;
2023/11/24 14:10:50;;;;;;;1;0.3;;;;;;;;;;;;;
2023/11/24 14:13:15;;;;;;;1.1;0.3;;;;;;;;;;;;;
2023/11/24 14:15:41;;;;;;;0.2;0.2;;;;;;;;;;;;;
2023/11/24 14:18:07;;;;;;;0.3;0.3;;;;;;;;;;;;;
2023/11/24 14:20:32;;;;;;;0.2;0.2;;;;;;;;;;;;;
2023/11/24 14:22:59;;;;;;;0.5;0.4;;;;;;;;;;;;;
2023/11/24 14:25:24;;;;;;;0.4;0.4;;;;;;;;;;;;;
2023/11/24 14:27:49;;;;;;;0.5;0.4;;;;;;;;;;;;;
2023/11/24 14:30:15;;;;;;;0.2;0.2;;;;;;;;;;;;;
2023/11/24 14:32:42;;;;;;;0.5;0.5;;;;;;;;;;;;;
2023/11/24 14:35:08;;;;;;;0.2;0.2;;;;;;;;;;;;;
2023/11/24 14:37:34;;;;;;;0.3;0.3;;;;;;;;;;;;;
2023/11/24 14:40:00;;;;;;;0.5;0.5;;;;;;;;;;;;;
2023/11/24 14:42:30;;;;;;;0.3;0.3;;;;;;;;;;;;;
2023/11/24 14:44:58;;;;;;;0.4;0.4;;;;;;;;;;;;;
2023/11/24 14:47:23;;;;;;;0.4;0.3;;;;;;;;;;;;;
2023/11/24 14:49:49;;;;;;;0.4;0.4;;;;;;;;;;;;;
2023/11/24 14:52:14;;;;;;;0.4;0.4;;;;;;;;;;;;;
2023/11/24 14:54:40;;;;;;;0.6;0.6;;;;;;;;;;;;;
2023/11/24 14:57:06;;;;;;;0.8;0.5;;;;;;;;;;;;;
2023/11/24 14:59:34;;;;;;;0.5;0.5;;;;;;;;;;;;;
2023/11/24 15:02:06;;;;;;;0.4;0.4;;;;;;;;;;;;;
2023/11/24 15:04:27;;;;;;;0.8;0.5;;;;;;;;;;;;;
2023/11/24 15:06:51;;;;;;;0.6;0.6;;;;;;;;;;;;;
2023/11/24 15:09:16;;;;;;;0.5;0.5;;;;;;;;;;;;;
2023/11/24 15:11:43;;;;;;;0.4;0.3;;;;;;;;;;;;;
2023/11/24 15:14:14;;;;;;;1;0.4;;;;;;;;;;;;;
2023/11/24 15:16:42;;;;;;;0.5;0.5;;;;;;;;;;;;;
2023/11/24 15:19:00;;;;;;;1;0.9;;;;;;;;;;;;;
2023/11/24 15:21:30;;;;;;;3.3;1.1;;;;;;;;;;;;;
2023/11/24 15:23:53;;;;;;;3.8;1.2;;;;;;;;;;;;;
2023/11/24 15:26:23;;;;;;;3.2;1.4;;;;;;;;;;;;;
2023/11/24 15:28:46;;;;;;;2.5;1.8;;;;;;;;;;;;;
2023/11/24 15:31:13;;;;;;;1.4;1.3;;;;;;;;;;;;;
2023/11/24 15:33:37;;;;;;;4;2.5;;;;;;;;;;;;;
2023/11/24 15:36:08;;;;;;;2.8;1;;;;;;;;;;;;;
2023/11/24 15:38:29;;;;;;;1.5;0.5;;;;;;;;;;;;;
2023/11/24 15:40:57;;;;;;;5.9;4.4;;;;;;;;;;;;;
2023/11/24 15:43:23;;;;;;;2.3;1.3;;;;;;;;;;;;;
2023/11/24 15:45:53;;;;;;;1.8;1.4;;;;;;;;;;;;;
2023/11/24 15:48:17;;;;;;;1.8;0.8;;;;;;;;;;;;;
2023/11/24 15:50:45;;;;;;;5.4;2.1;;;;;;;;;;;;;
2023/11/24 15:53:13;;;;;;;2.4;1.4;;;;;;;;;;;;;
2023/11/24 15:55:39;;;;;;;2.4;1.1;;;;;;;;;;;;;
2023/11/24 15:58:02;;;;;;;2;0.9;;;;;;;;;;;;;
2023/11/24 16:00:33;;;;;;;2.2;1.5;;;;;;;;;;;;;
2023/11/24 16:02:54;;;;;;;2.3;1;;;;;;;;;;;;;
2023/11/24 16:05:22;;;;;;;1.6;0.8;;;;;;;;;;;;;
2023/11/24 16:07:53;;;;;;;2.2;0.8;;;;;;;;;;;;;
2023/11/24 16:10:16;;;;;;;1.4;1.2;;;;;;;;;;;;;
2023/11/24 16:12:38;;;;;;;3;1.7;;;;;;;;;;;;;
2023/11/24 16:15:05;;;;;;;2;1.1;;;;;;;;;;;;;
2023/11/24 16:17:30;;;;;;;3.9;1.8;;;;;;;;;;;;;
2023/11/24 16:19:58;;;;;;;2;1.4;;;;;;;;;;;;;
2023/11/24 16:22:22;;;;;;;2.6;1.6;;;;;;;;;;;;;
2023/11/24 16:24:51;;;;;;;2.8;1.3;;;;;;;;;;;;;
2023/11/24 16:27:16;;;;;;;3.5;1.2;;;;;;;;;;;;;
2023/11/24 16:29:44;;;;;;;2.1;1.4;;;;;;;;;;;;;
2023/11/24 16:32:09;;;;;;;2.3;1.2;;;;;;;;;;;;;
2023/11/24 16:34:35;;;;;;;3.9;2.7;;;;;;;;;;;;;
2023/11/24 16:36:59;;;;;;;4.1;1.7;;;;;;;;;;;;;
2023/11/24 16:39:26;;;;;;;3.7;2.1;;;;;;;;;;;;;
2023/11/24 16:41:51;;;;;;;3.4;2.2;;;;;;;;;;;;;
2023/11/24 16:45:44;;;;;;;2.5;1.2;;;;;;;;;;;;;
2023/11/24 16:48:09;;;;;;;6.5;2.9;;;;;;;;;;;;;
2023/11/24 16:50:36;;;;;;;3;1.6;;;;;;;;;;;;;
2023/11/24 16:53:01;;;;;;;6.2;3.2;;;;;;;;;;;;;
2023/11/24 16:55:30;;;;;;;3.5;1.2;;;;;;;;;;;;;
2023/11/24 16:57:55;;;;;;;5.1;1.8;;;;;;;;;;;;;
2023/11/24 17:00:21;;;;;;;2.2;1.2;;;;;;;;;;;;;
2023/11/24 17:02:49;;;;;;;3.4;1.9;;;;;;;;;;;;;
2023/11/24 17:05:11;;;;;;;5.7;2.4;;;;;;;;;;;;;
2023/11/24 17:07:38;;;;;;;6;2.5;;;;;;;;;;;;;
2023/11/24 17:10:04;;;;;;;2.8;1.9;;;;;;;;;;;;;
2023/11/24 17:12:29;;;;;;;12.6;6.4;;;;;;;;;;;;;
2023/11/24 17:14:55;;;;;;;7.9;5;;;;;;;;;;;;;
2023/11/24 17:17:24;;;;;;;38.5;20.1;;;;;;;;;;;;;
2023/11/24 17:19:52;;;;;;;19.3;11;;;;;;;;;;;;;
2023/11/24 17:22:17;;;;;;;37.2;15.4;;;;;;;;;;;;;
2023/11/24 17:24:43;;;;;;;15.5;9.2;;;;;;;;;;;;;
2023/11/24 17:27:08;;;;;;;13.2;6.9;;;;;;;;;;;;;
2023/11/24 17:29:35;;;;;;;9.1;5.8;;;;;;;;;;;;;
2023/11/24 17:31:59;;;;;;;7.6;4.8;;;;;;;;;;;;;
2023/11/24 17:34:26;;;;;;;12;7.7;;;;;;;;;;;;;
2023/11/24 17:36:52;;;;;;;6;3.9;;;;;;;;;;;;;
2023/11/24 17:39:18;;;;;;;5.2;3.8;;;;;;;;;;;;;
2023/11/24 17:41:43;;;;;;;6;3.8;;;;;;;;;;;;;
2023/11/24 17:44:11;;;;;;;6;3.4;;;;;;;;;;;;;
2023/11/24 17:46:35;;;;;;;5;2.9;;;;;;;;;;;;;
2023/11/24 17:49:00;;;;;;;4.9;2.9;;;;;;;;;;;;;
2023/11/24 17:51:28;;;;;;;6.9;3.4;;;;;;;;;;;;;
2023/11/24 17:53:54;;;;;;;6.4;2.6;;;;;;;;;;;;;
2023/11/24 17:56:19;;;;;;;4;3.1;;;;;;;;;;;;;
2023/11/24 17:58:44;;;;;;;9.6;5.1;;;;;;;;;;;;;
2023/11/24 18:01:10;;;;;;;16.2;11.6;;;;;;;;;;;;;
2023/11/24 18:03:36;;;;;;;8.1;5.3;;;;;;;;;;;;;
2023/11/24 18:06:02;;;;;;;2.1;1.3;;;;;;;;;;;;;
2023/11/24 18:08:32;;;;;;;1.7;0.7;;;;;;;;;;;;;
2023/11/24 18:10:54;;;;;;;1.3;1;;;;;;;;;;;;;
2023/11/24 18:13:19;;;;;;;43.2;28.2;;;;;;;;;;;;;
2023/11/24 18:15:44;;;;;;;13.7;9.2;;;;;;;;;;;;;
2023/11/24 18:18:13;;;;;;;8.3;5.7;;;;;;;;;;;;;
2023/11/24 18:20:38;;;;;;;32.7;20.7;;;;;;;;;;;;;
2023/11/24 18:23:08;;;;;;;17.7;12.3;;;;;;;;;;;;;
2023/11/24 18:25:36;;;;;;;19;10.4;;;;;;;;;;;;;
2023/11/24 18:28:02;;;;;;;11.5;6.9;;;;;;;;;;;;;
2023/11/24 18:30:33;;;;;;;4.7;2.7;;;;;;;;;;;;;
2023/11/24 18:33:04;;;;;;;3.5;1.9;;;;;;;;;;;;;
2023/11/24 18:35:31;;;;;;;3.7;2.4;;;;;;;;;;;;;
2023/11/24 18:37:56;;;;;;;2.8;1.6;;;;;;;;;;;;;
2023/11/24 18:40:22;;;;;;;3.2;1.3;;;;;;;;;;;;;
2023/11/24 18:42:47;;;;;;;1;0.7;;;;;;;;;;;;;
2023/11/24 18:45:19;;;;;;;0.4;0.2;;;;;;;;;;;;;
2023/11/24 18:47:49;;;;;;;0.2;0.2;;;;;;;;;;;;;
2023/11/24 18:50:20;;;;;;;0.4;0.3;;;;;;;;;;;;;
2023/11/24 18:52:48;;;;;;;0.3;0.3;;;;;;;;;;;;;
2023/11/24 18:55:20;;;;;;;0.2;0.2;;;;;;;;;;;;;
2023/11/24 18:57:49;;;;;;;0.3;0.3;;;;;;;;;;;;;
2023/11/24 19:00:18;;;;;;;0.2;0.2;;;;;;;;;;;;;
2023/11/24 19:02:40;;;;;;;0.4;0.3;;;;;;;;;;;;;
2023/11/24 19:05:07;;;;;;;0.3;0.3;;;;;;;;;;;;;
2023/11/24 19:07:32;;;;;;;1;0.4;;;;;;;;;;;;;
2023/11/24 19:09:58;;;;;;;0.3;0.3;;;;;;;;;;;;;
2023/11/24 19:12:23;;;;;;;0.4;0.4;;;;;;;;;;;;;
2023/11/24 19:14:50;;;;;;;0.2;0.2;;;;;;;;;;;;;
2023/11/24 19:17:17;;;;;;;0.5;0.5;;;;;;;;;;;;;
2023/11/24 19:19:47;;;;;;;1.1;0.3;;;;;;;;;;;;;
2023/11/24 19:22:09;;;;;;;0.4;0.4;;;;;;;;;;;;;
2023/11/24 19:24:35;;;;;;;0.3;0.3;;;;;;;;;;;;;
2023/11/24 19:27:00;;;;;;;2.9;1.5;;;;;;;;;;;;;
2023/11/24 19:29:26;;;;;;;3;1.8;;;;;;;;;;;;;
2023/11/24 19:31:51;;;;;;;3.2;2.5;;;;;;;;;;;;;
2023/11/24 19:34:19;;;;;;;3.3;2.3;;;;;;;;;;;;;
2023/11/24 19:36:44;;;;;;;3.5;2.3;;;;;;;;;;;;;
2023/11/24 19:39:12;;;;;;;5.4;3.4;;;;;;;;;;;;;
2023/11/24 19:41:36;;;;;;;3.1;2;;;;;;;;;;;;;
2023/11/24 19:44:02;;;;;;;1.7;1.5;;;;;;;;;;;;;
2023/11/24 19:46:28;;;;;;;1.6;1.5;;;;;;;;;;;;;
2023/11/24 19:48:53;;;;;;;1.6;1.5;;;;;;;;;;;;;
2023/11/24 19:51:18;;;;;;;3.6;2;;;;;;;;;;;;;
2023/11/24 19:53:45;;;;;;;2.4;1.7;;;;;;;;;;;;;
2023/11/24 19:56:10;;;;;;;1.6;1.1;;;;;;;;;;;;;
2023/11/24 19:58:39;;;;;;;3.1;2.2;;;;;;;;;;;;;
2023/11/24 20:01:06;;;;;;;1.6;1.5;;;;;;;;;;;;;
2023/11/24 20:03:31;;;;;;;2.2;2;;;;;;;;;;;;;
2023/11/24 20:05:59;;;;;;;3;2.1;;;;;;;;;;;;;
2023/11/24 20:08:24;;;;;;;1.5;1.3;;;;;;;;;;;;;
2023/11/24 20:10:52;;;;;;;1.1;1;;;;;;;;;;;;;
2023/11/24 20:13:16;;;;;;;0.8;0.8;;;;;;;;;;;;;
2023/11/24 20:15:46;;;;;;;1.4;1.3;;;;;;;;;;;;;
2023/11/24 20:18:13;;;;;;;2.2;1.2;;;;;;;;;;;;;
2023/11/24 20:20:39;;;;;;;1.7;0.8;;;;;;;;;;;;;
2023/11/24 20:23:06;;;;;;;1.5;1.2;;;;;;;;;;;;;
2023/11/24 20:25:31;;;;;;;4.1;3.1;;;;;;;;;;;;;
2023/11/24 20:27:58;;;;;;;1.2;1.1;;;;;;;;;;;;;
2023/11/24 20:30:26;;;;;;;0.7;0.6;;;;;;;;;;;;;
2023/11/24 20:32:55;;;;;;;2.1;0.8;;;;;;;;;;;;;
2023/11/24 20:35:19;;;;;;;9.2;5.5;;;;;;;;;;;;;
2023/11/24 20:37:47;;;;;;;2.6;1.7;;;;;;;;;;;;;
2023/11/24 20:40:12;;;;;;;0.7;0.7;;;;;;;;;;;;;
2023/11/24 20:42:45;;;;;;;1;1;;;;;;;;;;;;;
2023/11/24 20:45:16;;;;;;;1;0.9;;;;;;;;;;;;;
2023/11/24 20:47:49;;;;;;;0.8;0.8;;;;;;;;;;;;;